Phu Lien, Viet Nam

2:00 AM ICT on May 31, 2015 (GMT +0700)
Noibai International | | Change Station
CLOSE
Current Station
Airport
Location: Ha Noi,
Elevation: 36 ft
Nearby Weather Stations

Elev 36 ft 21.22 °N, 105.81 °E | Updated 30 minutes ago

Light Thunderstorms and Rain
Light Thunderstorm Rain
79 °F
Feels Like 79 °F
N
6
Wind Variable Wind from East

Today
High -- | Low -- °F
--% Chance of Precip.
Yesterday
High -- | Low -- °F
Precip. -- in
5:12 AM 6:30 PM
Waxing Gibbous, 91% visible
Pressure 29.59 in
Visibility 6.2 miles
Clouds Few 2000 ft
Few 3000 ft
Mostly Cloudy 10000 ft
Dew Point 72 °F
Humidity 78%
Rainfall 0.00 in
Snow Depth Not available.
UV 0 out of 12
Pollen Not available.
Air Quality Not available.
Flu Activity Not available.
METAR VVNB 301830Z 09005KT 9999 -TSRA FEW020 FEW030CB BKN100 26/22 Q1002 NOSIG

More Conditions Fewer Conditions

Pressure 29.59 in
Visibility 6.2 miles
Clouds Few 2000 ft
Few 3000 ft
Mostly Cloudy 10000 ft
Dew Point 72 °F
Humidity 78%
Rainfall 0.00 in
Snow Depth Not available.
UV 0 out of 12
Pollen Not available.
Air Quality Not available.
Flu Activity Not available.
METAR VVNB 301830Z 09005KT 9999 -TSRA FEW020 FEW030CB BKN100 26/22 Q1002 NOSIG

More Conditions Fewer Conditions

10-Day Weather Forecast

Almanac

Astronomy

May. 31, 2015 Rise Set
Actual Time
Civil Twilight
Nautical Twilight
Astronomical Twilight
Moon
Length of Visible Light
Length of Day
Tomorrow will be .
, % of the Moon is Illuminated

Today's Extremes

Country Highs Country Lows

Community

WunderPhotos

Upload Photos

1,825,618 photos uploaded!

WunderBlogs® & News

Nearby

Air Quality

  Air Quality AQ Index Pollutant
Not available.

Snow Depth

Station Depth Elevation

Earthquake Activity

City Distance Mag. Time & Date
Minimum magnitude displayed is 2.5.

Coastal Water Temperatures

Place Temperature

Stations

Nearby Weather Stations

Station Location Temp. Windchill Dew Point Humidity Wind Precip. Elev Updated Type